aviador You're here:

KPRN Decoded Metar

in _UNIDENTIFIED
Report Time2017-09-24 22:56:00
UTC Time2017-09-24 23:08:13
Flight Rules vfr VFR
Wind090° at 04 kt
W.Decomp.*RWY 14: 2.7 kt HW 3 kt LCW
W.Rank090° ranks 17
Current wind is below 090° avg. (5.7)
Visibility9999 m
Phenomena:N/A
Clouds:N/A
Expected CloudBase > 4,000 ft AGL from Temp-Dew spread
CeilingNone
Temp28°C (ISA +14)
Dew Point18°C (55% RH)
Heat Index28.9°C
QNH1014 hPa
Density Alt2,293 ft
Elevation453 ft
Report Wrong Elevation
Raw Report
KPRN 242256Z AUTO 09004KT 10SM CLR 28/18 A2995 RMK AO2 SLP136
T02780183 $=

Extra information for KPRN:More info

Metar Taf Metar & Taf Last 4 Metars F.Rules Stats Wind Profile Meteogram Temp Stats Metar ALERT Operation Metar Decoded Social comments